sensor_id;sensor_type;location;lat;lon;timestamp;temperature;humidity
42979;DHT22;28616;44.746;19.678;2023-06-24T00:01:28;21.10;99.90
42979;DHT22;28616;44.746;19.678;2023-06-24T00:03:54;21.10;99.90
42979;DHT22;28616;44.746;19.678;2023-06-24T00:06:20;21.10;99.90
42979;DHT22;28616;44.746;19.678;2023-06-24T00:08:49;21.10;99.90
42979;DHT22;28616;44.746;19.678;2023-06-24T00:11:15;21.10;99.90
42979;DHT22;28616;44.746;19.678;2023-06-24T00:13:42;21.00;99.90
42979;DHT22;28616;44.746;19.678;2023-06-24T00:16:09;21.00;99.90
42979;DHT22;28616;44.746;19.678;2023-06-24T00:18:36;21.00;99.90
42979;DHT22;28616;44.746;19.678;2023-06-24T00:21:03;21.00;99.90
42979;DHT22;28616;44.746;19.678;2023-06-24T00:23:30;21.00;99.90
42979;DHT22;28616;44.746;19.678;2023-06-24T00:26:00;21.00;99.90
42979;DHT22;28616;44.746;19.678;2023-06-24T00:28:26;21.00;99.90
42979;DHT22;28616;44.746;19.678;2023-06-24T00:30:52;21.00;99.90
42979;DHT22;28616;44.746;19.678;2023-06-24T00:33:18;21.10;99.90
42979;DHT22;28616;44.746;19.678;2023-06-24T00:35:47;21.00;99.90
42979;DHT22;28616;44.746;19.678;2023-06-24T00:38:13;21.10;99.90
42979;DHT22;28616;44.746;19.678;2023-06-24T00:40:39;21.00;99.90
42979;DHT22;28616;44.746;19.678;2023-06-24T00:43:06;21.00;99.90
42979;DHT22;28616;44.746;19.678;2023-06-24T00:45:31;21.00;99.90
42979;DHT22;28616;44.746;19.678;2023-06-24T00:47:58;21.00;99.90
42979;DHT22;28616;44.746;19.678;2023-06-24T00:50:24;21.00;99.90
42979;DHT22;28616;44.746;19.678;2023-06-24T00:52:50;21.00;99.90
42979;DHT22;28616;44.746;19.678;2023-06-24T00:55:17;21.00;99.90
42979;DHT22;28616;44.746;19.678;2023-06-24T00:57:44;21.00;99.90
42979;DHT22;28616;44.746;19.678;2023-06-24T01:00:11;20.90;99.90
42979;DHT22;28616;44.746;19.678;2023-06-24T01:02:42;20.90;99.90
42979;DHT22;28616;44.746;19.678;2023-06-24T01:05:10;20.80;99.90
42979;DHT22;28616;44.746;19.678;2023-06-24T01:07:39;20.90;99.90
42979;DHT22;28616;44.746;19.678;2023-06-24T01:10:07;20.80;99.90
42979;DHT22;28616;44.746;19.678;2023-06-24T01:12:38;20.90;99.90
42979;DHT22;28616;44.746;19.678;2023-06-24T01:15:06;20.80;99.90
42979;DHT22;28616;44.746;19.678;2023-06-24T01:27:57;20.60;99.90
42979;DHT22;28616;44.746;19.678;2023-06-24T01:33:22;20.60;99.90
42979;DHT22;28616;44.746;19.678;2023-06-24T01:35:51;20.50;99.90
42979;DHT22;28616;44.746;19.678;2023-06-24T01:38:24;20.50;99.90
42979;DHT22;28616;44.746;19.678;2023-06-24T01:40:53;20.40;99.90
42979;DHT22;28616;44.746;19.678;2023-06-24T01:43:20;20.40;99.90
42979;DHT22;28616;44.746;19.678;2023-06-24T01:45:50;20.30;99.90
42979;DHT22;28616;44.746;19.678;2023-06-24T01:48:22;20.40;99.90
42979;DHT22;28616;44.746;19.678;2023-06-24T01:50:58;20.40;99.90
42979;DHT22;28616;44.746;19.678;2023-06-24T01:53:24;20.50;99.90
42979;DHT22;28616;44.746;19.678;2023-06-24T01:55:53;20.50;99.90
42979;DHT22;28616;44.746;19.678;2023-06-24T01:58:22;20.50;99.90
42979;DHT22;28616;44.746;19.678;2023-06-24T02:00:48;20.50;99.90
42979;DHT22;28616;44.746;19.678;2023-06-24T02:03:15;20.50;99.90
42979;DHT22;28616;44.746;19.678;2023-06-24T02:05:41;20.50;99.90
42979;DHT22;28616;44.746;19.678;2023-06-24T02:08:08;20.60;99.90
42979;DHT22;28616;44.746;19.678;2023-06-24T02:10:38;20.60;99.90
42979;DHT22;28616;44.746;19.678;2023-06-24T02:13:05;20.50;99.90
42979;DHT22;28616;44.746;19.678;2023-06-24T02:15:33;20.50;99.90
42979;DHT22;28616;44.746;19.678;2023-06-24T02:18:01;20.40;99.90
42979;DHT22;28616;44.746;19.678;2023-06-24T02:20:28;20.40;99.90
42979;DHT22;28616;44.746;19.678;2023-06-24T02:22:56;20.40;99.90
42979;DHT22;28616;44.746;19.678;2023-06-24T02:25:23;20.40;99.90
42979;DHT22;28616;44.746;19.678;2023-06-24T02:27:50;20.20;99.90
42979;DHT22;28616;44.746;19.678;2023-06-24T02:30:17;20.20;99.90
42979;DHT22;28616;44.746;19.678;2023-06-24T02:32:43;20.10;99.90
42979;DHT22;28616;44.746;19.678;2023-06-24T02:35:08;20.10;99.90
42979;DHT22;28616;44.746;19.678;2023-06-24T02:37:34;20.00;99.90
42979;DHT22;28616;44.746;19.678;2023-06-24T02:40:01;20.00;99.90
42979;DHT22;28616;44.746;19.678;2023-06-24T02:42:28;20.00;99.90
42979;DHT22;28616;44.746;19.678;2023-06-24T02:44:54;20.00;99.90
42979;DHT22;28616;44.746;19.678;2023-06-24T02:47:20;20.00;99.90
42979;DHT22;28616;44.746;19.678;2023-06-24T02:49:47;20.00;99.90
42979;DHT22;28616;44.746;19.678;2023-06-24T02:52:15;20.10;99.90
42979;DHT22;28616;44.746;19.678;2023-06-24T02:54:41;20.00;99.90
42979;DHT22;28616;44.746;19.678;2023-06-24T02:57:08;20.00;99.90
42979;DHT22;28616;44.746;19.678;2023-06-24T02:59:34;19.90;99.90
42979;DHT22;28616;44.746;19.678;2023-06-24T03:02:01;19.90;99.90
42979;DHT22;28616;44.746;19.678;2023-06-24T03:04:29;19.90;99.90
42979;DHT22;28616;44.746;19.678;2023-06-24T03:06:56;19.90;99.90
42979;DHT22;28616;44.746;19.678;2023-06-24T03:09:22;19.90;99.90
42979;DHT22;28616;44.746;19.678;2023-06-24T03:11:48;19.80;99.90
42979;DHT22;28616;44.746;19.678;2023-06-24T03:14:15;19.70;99.90
42979;DHT22;28616;44.746;19.678;2023-06-24T03:16:41;19.70;99.90
42979;DHT22;28616;44.746;19.678;2023-06-24T03:19:08;19.70;99.90
42979;DHT22;28616;44.746;19.678;2023-06-24T03:21:33;19.70;99.90
42979;DHT22;28616;44.746;19.678;2023-06-24T03:23:59;19.60;99.90
42979;DHT22;28616;44.746;19.678;2023-06-24T03:26:32;19.70;99.90
42979;DHT22;28616;44.746;19.678;2023-06-24T03:28:58;19.60;99.90
42979;DHT22;28616;44.746;19.678;2023-06-24T03:31:24;19.60;99.90
42979;DHT22;28616;44.746;19.678;2023-06-24T03:33:50;19.60;99.90
42979;DHT22;28616;44.746;19.678;2023-06-24T03:36:15;19.70;99.90
42979;DHT22;28616;44.746;19.678;2023-06-24T03:38:41;19.70;99.90
42979;DHT22;28616;44.746;19.678;2023-06-24T03:41:07;19.70;99.90
42979;DHT22;28616;44.746;19.678;2023-06-24T03:43:33;19.70;99.90
42979;DHT22;28616;44.746;19.678;2023-06-24T03:45:58;19.70;99.90
42979;DHT22;28616;44.746;19.678;2023-06-24T03:48:25;19.80;99.90
42979;DHT22;28616;44.746;19.678;2023-06-24T03:50:51;19.80;99.90
42979;DHT22;28616;44.746;19.678;2023-06-24T03:53:17;19.80;99.90
42979;DHT22;28616;44.746;19.678;2023-06-24T03:55:43;19.80;99.90
42979;DHT22;28616;44.746;19.678;2023-06-24T03:58:09;19.70;99.90
42979;DHT22;28616;44.746;19.678;2023-06-24T04:00:34;19.80;99.90
42979;DHT22;28616;44.746;19.678;2023-06-24T04:03:04;19.80;99.90
42979;DHT22;28616;44.746;19.678;2023-06-24T04:05:30;19.80;99.90
42979;DHT22;28616;44.746;19.678;2023-06-24T04:07:56;19.80;99.90
42979;DHT22;28616;44.746;19.678;2023-06-24T04:10:22;19.80;99.90
42979;DHT22;28616;44.746;19.678;2023-06-24T04:12:47;19.90;99.90
42979;DHT22;28616;44.746;19.678;2023-06-24T04:15:13;19.90;99.90
42979;DHT22;28616;44.746;19.678;2023-06-24T04:17:39;19.90;99.90
42979;DHT22;28616;44.746;19.678;2023-06-24T04:20:05;19.90;99.90
42979;DHT22;28616;44.746;19.678;2023-06-24T04:22:37;19.90;99.90
42979;DHT22;28616;44.746;19.678;2023-06-24T04:25:05;20.00;99.90
42979;DHT22;28616;44.746;19.678;2023-06-24T04:27:32;20.10;99.90
42979;DHT22;28616;44.746;19.678;2023-06-24T04:29:59;20.10;99.90
42979;DHT22;28616;44.746;19.678;2023-06-24T04:32:25;20.10;99.90
42979;DHT22;28616;44.746;19.678;2023-06-24T04:34:51;20.10;99.90
42979;DHT22;28616;44.746;19.678;2023-06-24T04:37:17;20.10;99.90
42979;DHT22;28616;44.746;19.678;2023-06-24T04:39:43;20.10;99.90
42979;DHT22;28616;44.746;19.678;2023-06-24T04:42:09;20.10;99.90
42979;DHT22;28616;44.746;19.678;2023-06-24T04:44:36;20.10;99.90
42979;DHT22;28616;44.746;19.678;2023-06-24T04:47:02;20.10;99.90
42979;DHT22;28616;44.746;19.678;2023-06-24T04:49:28;20.10;99.90
42979;DHT22;28616;44.746;19.678;2023-06-24T04:51:53;20.10;99.90
42979;DHT22;28616;44.746;19.678;2023-06-24T04:54:19;20.10;99.90
42979;DHT22;28616;44.746;19.678;2023-06-24T04:56:45;20.10;99.90
42979;DHT22;28616;44.746;19.678;2023-06-24T04:59:13;20.20;99.90
42979;DHT22;28616;44.746;19.678;2023-06-24T05:01:39;20.20;99.90
42979;DHT22;28616;44.746;19.678;2023-06-24T05:04:05;20.20;99.90
42979;DHT22;28616;44.746;19.678;2023-06-24T05:06:31;20.20;99.90
42979;DHT22;28616;44.746;19.678;2023-06-24T05:08:56;20.20;99.90
42979;DHT22;28616;44.746;19.678;2023-06-24T05:11:22;20.20;99.90
42979;DHT22;28616;44.746;19.678;2023-06-24T05:13:48;20.30;99.90
42979;DHT22;28616;44.746;19.678;2023-06-24T05:16:14;20.30;99.90
42979;DHT22;28616;44.746;19.678;2023-06-24T05:18:40;20.30;99.90
42979;DHT22;28616;44.746;19.678;2023-06-24T05:21:05;20.40;99.90
42979;DHT22;28616;44.746;19.678;2023-06-24T05:23:31;20.40;99.90
42979;DHT22;28616;44.746;19.678;2023-06-24T05:25:57;20.40;99.90
42979;DHT22;28616;44.746;19.678;2023-06-24T05:28:23;20.40;99.90
42979;DHT22;28616;44.746;19.678;2023-06-24T05:30:48;20.40;99.90
42979;DHT22;28616;44.746;19.678;2023-06-24T05:33:14;20.50;99.90
42979;DHT22;28616;44.746;19.678;2023-06-24T05:35:42;20.50;99.90
42979;DHT22;28616;44.746;19.678;2023-06-24T05:38:08;20.50;99.90
42979;DHT22;28616;44.746;19.678;2023-06-24T05:40:34;20.50;99.90
42979;DHT22;28616;44.746;19.678;2023-06-24T05:43:00;20.50;99.90
42979;DHT22;28616;44.746;19.678;2023-06-24T05:45:26;20.60;99.90
42979;DHT22;28616;44.746;19.678;2023-06-24T05:47:52;20.60;99.90
42979;DHT22;28616;44.746;19.678;2023-06-24T05:52:40;20.60;99.90
42979;DHT22;28616;44.746;19.678;2023-06-24T05:55:06;20.60;99.90
42979;DHT22;28616;44.746;19.678;2023-06-24T05:57:32;20.60;99.90
42979;DHT22;28616;44.746;19.678;2023-06-24T05:59:58;20.80;99.90
42979;DHT22;28616;44.746;19.678;2023-06-24T06:02:24;21.00;99.90
42979;DHT22;28616;44.746;19.678;2023-06-24T06:04:50;21.30;99.90
42979;DHT22;28616;44.746;19.678;2023-06-24T06:07:16;21.50;99.90
42979;DHT22;28616;44.746;19.678;2023-06-24T06:09:42;21.60;99.90
42979;DHT22;28616;44.746;19.678;2023-06-24T06:12:08;21.80;99.90
42979;DHT22;28616;44.746;19.678;2023-06-24T06:14:34;21.90;99.90
42979;DHT22;28616;44.746;19.678;2023-06-24T06:17:00;22.10;99.90
42979;DHT22;28616;44.746;19.678;2023-06-24T06:19:26;22.40;99.90
42979;DHT22;28616;44.746;19.678;2023-06-24T06:24:12;22.50;99.90
42979;DHT22;28616;44.746;19.678;2023-06-24T06:26:42;22.40;99.90
42979;DHT22;28616;44.746;19.678;2023-06-24T06:29:09;22.60;99.90
42979;DHT22;28616;44.746;19.678;2023-06-24T06:31:36;22.80;99.90
42979;DHT22;28616;44.746;19.678;2023-06-24T06:36:38;22.80;99.90
42979;DHT22;28616;44.746;19.678;2023-06-24T06:39:03;22.70;99.90
42979;DHT22;28616;44.746;19.678;2023-06-24T06:43:01;22.90;99.90
42979;DHT22;28616;44.746;19.678;2023-06-24T06:49:13;22.30;99.90
42979;DHT22;28616;44.746;19.678;2023-06-24T06:51:38;22.30;99.90
42979;DHT22;28616;44.746;19.678;2023-06-24T06:54:04;22.30;99.90
42979;DHT22;28616;44.746;19.678;2023-06-24T06:56:30;22.40;99.90
42979;DHT22;28616;44.746;19.678;2023-06-24T06:58:56;22.60;99.90
42979;DHT22;28616;44.746;19.678;2023-06-24T07:01:21;22.70;99.90
42979;DHT22;28616;44.746;19.678;2023-06-24T07:03:49;22.70;99.90
42979;DHT22;28616;44.746;19.678;2023-06-24T07:06:15;22.70;99.90
42979;DHT22;28616;44.746;19.678;2023-06-24T17:53:11;23.40;99.90
42979;DHT22;28616;44.746;19.678;2023-06-24T17:55:37;23.20;99.90
42979;DHT22;28616;44.746;19.678;2023-06-24T18:00:31;23.20;99.90
42979;DHT22;28616;44.746;19.678;2023-06-24T18:03:02;23.20;99.90
42979;DHT22;28616;44.746;19.678;2023-06-24T18:05:28;23.20;99.90
42979;DHT22;28616;44.746;19.678;2023-06-24T18:07:53;23.20;99.90
42979;DHT22;28616;44.746;19.678;2023-06-24T18:10:19;23.20;99.90
42979;DHT22;28616;44.746;19.678;2023-06-24T18:12:45;23.20;99.90
42979;DHT22;28616;44.746;19.678;2023-06-24T18:15:11;23.20;99.90
42979;DHT22;28616;44.746;19.678;2023-06-24T18:17:37;23.20;99.90
42979;DHT22;28616;44.746;19.678;2023-06-24T18:20:04;23.20;99.90
42979;DHT22;28616;44.746;19.678;2023-06-24T18:22:30;23.10;99.90
42979;DHT22;28616;44.746;19.678;2023-06-24T18:24:56;23.00;99.90
42979;DHT22;28616;44.746;19.678;2023-06-24T18:27:22;23.00;99.90
42979;DHT22;28616;44.746;19.678;2023-06-24T18:29:48;23.00;99.90
42979;DHT22;28616;44.746;19.678;2023-06-24T18:32:13;22.90;99.90
42979;DHT22;28616;44.746;19.678;2023-06-24T18:34:39;22.90;99.90
42979;DHT22;28616;44.746;19.678;2023-06-24T18:37:05;22.90;99.90
42979;DHT22;28616;44.746;19.678;2023-06-24T18:39:31;22.80;99.90
42979;DHT22;28616;44.746;19.678;2023-06-24T18:41:56;22.70;99.90
42979;DHT22;28616;44.746;19.678;2023-06-24T18:44:22;22.70;99.90
42979;DHT22;28616;44.746;19.678;2023-06-24T18:46:48;22.60;99.90
42979;DHT22;28616;44.746;19.678;2023-06-24T18:49:14;22.60;99.90
42979;DHT22;28616;44.746;19.678;2023-06-24T18:51:40;22.50;99.90
42979;DHT22;28616;44.746;19.678;2023-06-24T18:54:06;22.40;99.90
42979;DHT22;28616;44.746;19.678;2023-06-24T18:56:32;22.40;99.90
42979;DHT22;28616;44.746;19.678;2023-06-24T18:58:58;22.40;99.90
42979;DHT22;28616;44.746;19.678;2023-06-24T19:01:24;22.30;99.90
42979;DHT22;28616;44.746;19.678;2023-06-24T19:03:50;22.30;99.90
42979;DHT22;28616;44.746;19.678;2023-06-24T19:06:16;22.30;99.90
42979;DHT22;28616;44.746;19.678;2023-06-24T19:08:41;22.20;99.90
42979;DHT22;28616;44.746;19.678;2023-06-24T19:11:08;22.20;99.90
42979;DHT22;28616;44.746;19.678;2023-06-24T19:13:34;22.10;99.90
42979;DHT22;28616;44.746;19.678;2023-06-24T19:15:59;22.10;99.90
42979;DHT22;28616;44.746;19.678;2023-06-24T19:18:25;22.00;99.90
42979;DHT22;28616;44.746;19.678;2023-06-24T19:20:51;22.00;99.90
42979;DHT22;28616;44.746;19.678;2023-06-24T19:23:17;22.00;99.90
42979;DHT22;28616;44.746;19.678;2023-06-24T19:25:42;21.90;99.90
42979;DHT22;28616;44.746;19.678;2023-06-24T19:28:08;21.90;99.90
42979;DHT22;28616;44.746;19.678;2023-06-24T19:30:34;21.90;99.90
42979;DHT22;28616;44.746;19.678;2023-06-24T19:33:00;21.90;99.90
42979;DHT22;28616;44.746;19.678;2023-06-24T19:35:25;21.90;99.90
42979;DHT22;28616;44.746;19.678;2023-06-24T19:37:51;21.80;99.90
42979;DHT22;28616;44.746;19.678;2023-06-24T19:40:17;21.90;99.90
42979;DHT22;28616;44.746;19.678;2023-06-24T19:42:44;21.90;99.90
42979;DHT22;28616;44.746;19.678;2023-06-24T19:45:10;21.90;99.90
42979;DHT22;28616;44.746;19.678;2023-06-24T19:47:36;21.90;99.90
42979;DHT22;28616;44.746;19.678;2023-06-24T19:50:02;21.90;99.90
42979;DHT22;28616;44.746;19.678;2023-06-24T19:52:28;21.90;99.90
42979;DHT22;28616;44.746;19.678;2023-06-24T19:54:53;21.90;99.90
42979;DHT22;28616;44.746;19.678;2023-06-24T19:57:19;21.90;99.90
42979;DHT22;28616;44.746;19.678;2023-06-24T19:59:46;21.90;99.90
42979;DHT22;28616;44.746;19.678;2023-06-24T20:02:12;21.90;99.90
42979;DHT22;28616;44.746;19.678;2023-06-24T20:04:38;21.90;99.90
42979;DHT22;28616;44.746;19.678;2023-06-24T20:07:03;21.80;99.90
42979;DHT22;28616;44.746;19.678;2023-06-24T20:09:29;21.80;99.90
42979;DHT22;28616;44.746;19.678;2023-06-24T20:11:55;21.70;99.90
42979;DHT22;28616;44.746;19.678;2023-06-24T20:14:21;21.70;99.90
42979;DHT22;28616;44.746;19.678;2023-06-24T20:16:46;21.70;99.90
42979;DHT22;28616;44.746;19.678;2023-06-24T20:19:12;21.70;99.90
42979;DHT22;28616;44.746;19.678;2023-06-24T20:21:38;21.70;99.90
42979;DHT22;28616;44.746;19.678;2023-06-24T20:24:04;21.70;99.90
42979;DHT22;28616;44.746;19.678;2023-06-24T20:26:31;21.60;99.90
42979;DHT22;28616;44.746;19.678;2023-06-24T20:28:57;21.60;99.90
42979;DHT22;28616;44.746;19.678;2023-06-24T20:31:22;21.60;99.90
42979;DHT22;28616;44.746;19.678;2023-06-24T20:33:48;21.60;99.90
42979;DHT22;28616;44.746;19.678;2023-06-24T20:36:14;21.50;99.90
42979;DHT22;28616;44.746;19.678;2023-06-24T20:38:40;21.60;99.90
42979;DHT22;28616;44.746;19.678;2023-06-24T20:48:45;21.40;99.90
42979;DHT22;28616;44.746;19.678;2023-06-24T20:51:14;21.40;99.90
42979;DHT22;28616;44.746;19.678;2023-06-24T20:53:41;21.40;99.90
42979;DHT22;28616;44.746;19.678;2023-06-24T20:56:08;21.40;99.90
42979;DHT22;28616;44.746;19.678;2023-06-24T20:58:39;21.40;99.90
42979;DHT22;28616;44.746;19.678;2023-06-24T21:01:06;21.40;99.90
42979;DHT22;28616;44.746;19.678;2023-06-24T21:03:36;21.30;99.90
42979;DHT22;28616;44.746;19.678;2023-06-24T21:06:02;21.30;99.90
42979;DHT22;28616;44.746;19.678;2023-06-24T21:08:28;21.20;99.90
42979;DHT22;28616;44.746;19.678;2023-06-24T21:10:54;21.30;99.90
42979;DHT22;28616;44.746;19.678;2023-06-24T21:13:20;21.30;99.90
42979;DHT22;28616;44.746;19.678;2023-06-24T21:15:46;21.30;99.90
42979;DHT22;28616;44.746;19.678;2023-06-24T21:18:12;21.30;99.90
42979;DHT22;28616;44.746;19.678;2023-06-24T21:20:38;21.30;99.90
42979;DHT22;28616;44.746;19.678;2023-06-24T21:23:03;21.30;99.90
42979;DHT22;28616;44.746;19.678;2023-06-24T21:25:29;21.30;99.90
42979;DHT22;28616;44.746;19.678;2023-06-24T21:27:55;21.30;99.90
42979;DHT22;28616;44.746;19.678;2023-06-24T21:30:21;21.30;99.90
42979;DHT22;28616;44.746;19.678;2023-06-24T21:32:46;21.30;99.90
42979;DHT22;28616;44.746;19.678;2023-06-24T21:35:12;21.30;99.90
42979;DHT22;28616;44.746;19.678;2023-06-24T21:37:38;21.30;99.90
42979;DHT22;28616;44.746;19.678;2023-06-24T21:40:05;21.30;99.90
42979;DHT22;28616;44.746;19.678;2023-06-24T21:42:30;21.30;99.90
42979;DHT22;28616;44.746;19.678;2023-06-24T21:44:56;21.30;99.90
42979;DHT22;28616;44.746;19.678;2023-06-24T21:47:22;21.20;99.90
42979;DHT22;28616;44.746;19.678;2023-06-24T21:49:48;21.20;99.90
42979;DHT22;28616;44.746;19.678;2023-06-24T21:52:13;21.20;99.90
42979;DHT22;28616;44.746;19.678;2023-06-24T21:54:40;21.20;99.90
42979;DHT22;28616;44.746;19.678;2023-06-24T21:57:06;21.20;99.90
42979;DHT22;28616;44.746;19.678;2023-06-24T21:59:32;21.10;99.90
42979;DHT22;28616;44.746;19.678;2023-06-24T22:01:58;21.10;99.90
42979;DHT22;28616;44.746;19.678;2023-06-24T22:04:24;21.20;99.90
42979;DHT22;28616;44.746;19.678;2023-06-24T22:06:49;21.10;99.90
42979;DHT22;28616;44.746;19.678;2023-06-24T22:09:15;21.20;99.90
42979;DHT22;28616;44.746;19.678;2023-06-24T22:11:42;21.10;99.90
42979;DHT22;28616;44.746;19.678;2023-06-24T22:14:08;21.10;99.90
42979;DHT22;28616;44.746;19.678;2023-06-24T22:16:33;21.10;99.90
42979;DHT22;28616;44.746;19.678;2023-06-24T22:18:59;21.10;99.90
42979;DHT22;28616;44.746;19.678;2023-06-24T22:21:25;21.10;99.90
42979;DHT22;28616;44.746;19.678;2023-06-24T22:23:51;21.10;99.90
42979;DHT22;28616;44.746;19.678;2023-06-24T22:26:16;21.10;99.90
42979;DHT22;28616;44.746;19.678;2023-06-24T22:28:42;21.10;99.90
42979;DHT22;28616;44.746;19.678;2023-06-24T22:31:08;21.10;99.90
42979;DHT22;28616;44.746;19.678;2023-06-24T22:36:00;21.10;99.90
42979;DHT22;28616;44.746;19.678;2023-06-24T22:38:25;21.10;99.90
42979;DHT22;28616;44.746;19.678;2023-06-24T22:40:51;21.00;99.90
42979;DHT22;28616;44.746;19.678;2023-06-24T22:43:17;21.00;99.90
42979;DHT22;28616;44.746;19.678;2023-06-24T22:45:43;21.00;99.90
42979;DHT22;28616;44.746;19.678;2023-06-24T22:48:08;21.00;99.90
42979;DHT22;28616;44.746;19.678;2023-06-24T22:50:34;21.00;99.90
42979;DHT22;28616;44.746;19.678;2023-06-24T22:53:00;21.00;99.90
42979;DHT22;28616;44.746;19.678;2023-06-24T22:55:25;21.00;99.90
42979;DHT22;28616;44.746;19.678;2023-06-24T22:57:52;21.00;99.90
42979;DHT22;28616;44.746;19.678;2023-06-24T23:00:18;20.90;99.90
42979;DHT22;28616;44.746;19.678;2023-06-24T23:02:44;21.00;99.90
42979;DHT22;28616;44.746;19.678;2023-06-24T23:05:10;20.90;99.90
42979;DHT22;28616;44.746;19.678;2023-06-24T23:07:36;20.90;99.90
42979;DHT22;28616;44.746;19.678;2023-06-24T23:10:03;20.90;99.90
42979;DHT22;28616;44.746;19.678;2023-06-24T23:12:29;21.00;99.90
42979;DHT22;28616;44.746;19.678;2023-06-24T23:14:58;21.00;99.90
42979;DHT22;28616;44.746;19.678;2023-06-24T23:17:29;20.90;99.90
42979;DHT22;28616;44.746;19.678;2023-06-24T23:19:56;20.90;99.90
42979;DHT22;28616;44.746;19.678;2023-06-24T23:22:22;20.90;99.90
42979;DHT22;28616;44.746;19.678;2023-06-24T23:24:48;20.90;99.90
42979;DHT22;28616;44.746;19.678;2023-06-24T23:27:22;20.90;99.90
42979;DHT22;28616;44.746;19.678;2023-06-24T23:29:50;20.90;99.90
42979;DHT22;28616;44.746;19.678;2023-06-24T23:32:19;20.90;99.90
42979;DHT22;28616;44.746;19.678;2023-06-24T23:34:48;20.80;99.90
42979;DHT22;28616;44.746;19.678;2023-06-24T23:37:14;20.80;99.90
42979;DHT22;28616;44.746;19.678;2023-06-24T23:39:40;20.80;99.90
42979;DHT22;28616;44.746;19.678;2023-06-24T23:42:07;20.80;99.90
42979;DHT22;28616;44.746;19.678;2023-06-24T23:44:34;20.80;99.90
42979;DHT22;28616;44.746;19.678;2023-06-24T23:47:00;20.80;99.90
42979;DHT22;28616;44.746;19.678;2023-06-24T23:49:26;20.80;99.90
42979;DHT22;28616;44.746;19.678;2023-06-24T23:51:52;20.80;99.90
42979;DHT22;28616;44.746;19.678;2023-06-24T23:54:17;20.80;99.90
42979;DHT22;28616;44.746;19.678;2023-06-24T23:56:43;20.80;99.90
42979;DHT22;28616;44.746;19.678;2023-06-24T23:59:09;20.80;99.90
